Time;durP1;ratioP1;P1;durP2;ratioP2;P2;SDS_P1;SDS_P2;PMS_P1;PMS_P2;Temp;Humidity;BMP_temperature;BMP_pressure;BME280_temperature;BME280_humidity;BME280_pressure;Samples;Min_cycle;Max_cycle;Signal;HPM_P1;HPM_P2
2021/12/08 00:00:28;;;;;;;3.63;1.10;;;13.00;84.80;;;;;;5073824;28;20507;-71
2021/12/08 00:02:54;;;;;;;3.25;1.15;;;13.10;84.60;;;;;;5073656;28;20021;-71
2021/12/08 00:05:22;;;;;;;4.53;1.10;;;13.10;84.50;;;;;;5073569;28;20024;-69
2021/12/08 00:07:48;;;;;;;3.40;1.15;;;13.10;84.60;;;;;;5073640;28;20121;-66
2021/12/08 00:13:07;;;;;;;4.88;0.77;;;13.00;84.80;;;;;;5053770;28;20044;-68
2021/12/08 00:15:40;;;;;;;3.55;0.80;;;13.00;84.80;;;;;;5073193;28;20101;-71
2021/12/08 00:18:08;;;;;;;2.92;0.88;;;13.00;84.80;;;;;;5073635;28;20023;-73
2021/12/08 00:20:35;;;;;;;4.65;1.15;;;13.00;84.70;;;;;;5073294;28;20116;-73
2021/12/08 00:23:04;;;;;;;4.25;1.27;;;13.00;84.80;;;;;;5073405;28;20029;-70
2021/12/08 00:25:30;;;;;;;3.15;1.33;;;13.10;84.80;;;;;;5073087;28;20086;-73
2021/12/08 00:27:57;;;;;;;10.85;1.27;;;13.10;84.70;;;;;;5072804;28;20507;-72
2021/12/08 00:30:23;;;;;;;3.65;1.00;;;13.10;84.60;;;;;;5073396;28;20477;-72
2021/12/08 00:32:50;;;;;;;4.22;1.10;;;13.10;85.10;;;;;;5073294;28;20096;-73
2021/12/08 00:35:16;;;;;;;3.47;1.25;;;13.10;84.50;;;;;;5073238;28;20104;-73
2021/12/08 00:37:41;;;;;;;4.45;1.10;;;13.10;84.50;;;;;;5072840;28;20071;-73
2021/12/08 00:40:12;;;;;;;3.75;0.95;;;13.10;84.40;;;;;;5073094;28;20475;-73
2021/12/08 00:42:37;;;;;;;3.58;1.10;;;13.10;84.30;;;;;;5073499;28;20545;-73
2021/12/08 00:45:05;;;;;;;7.65;1.27;;;13.10;84.10;;;;;;5073131;28;20056;-73
2021/12/08 00:47:31;;;;;;;4.07;0.93;;;13.10;84.10;;;;;;5072862;28;20041;-71
2021/12/08 00:49:56;;;;;;;3.35;1.00;;;13.20;84.00;;;;;;5073038;28;20016;-73
2021/12/08 00:52:27;;;;;;;4.03;1.10;;;13.20;83.80;;;;;;5072875;28;20069;-73
2021/12/08 00:54:52;;;;;;;4.93;1.55;;;13.30;83.40;;;;;;5073107;28;20020;-72
2021/12/08 00:57:18;;;;;;;4.75;1.30;;;13.20;83.20;;;;;;5073140;28;20032;-72
2021/12/08 00:59:43;;;;;;;6.70;1.73;;;13.20;83.20;;;;;;5072894;28;20035;-70
2021/12/08 01:02:09;;;;;;;5.10;0.88;;;13.20;83.20;;;;;;5073230;28;20508;-70
2021/12/08 01:04:35;;;;;;;5.45;1.23;;;13.10;83.10;;;;;;5072883;28;20501;-70
2021/12/08 01:07:02;;;;;;;3.25;0.98;;;13.20;83.20;;;;;;5072533;28;20474;-72
2021/12/08 01:09:28;;;;;;;6.25;1.35;;;13.20;83.20;;;;;;5072971;28;20066;-68
2021/12/08 01:11:57;;;;;;;3.53;0.95;;;13.20;82.90;;;;;;5072538;28;20026;-72
2021/12/08 01:14:22;;;;;;;3.17;0.93;;;13.20;83.00;;;;;;5073129;28;20033;-67
2021/12/08 01:16:48;;;;;;;4.03;1.08;;;13.20;82.80;;;;;;5072664;28;20019;-72
2021/12/08 01:19:14;;;;;;;5.25;1.60;;;13.20;82.70;;;;;;5072929;28;20436;-72
2021/12/08 01:21:39;;;;;;;3.13;1.30;;;13.20;82.50;;;;;;5072549;28;20035;-69
2021/12/08 01:24:05;;;;;;;5.40;1.33;;;13.20;82.70;;;;;;5072951;28;20033;-68
2021/12/08 01:26:30;;;;;;;6.22;0.80;;;13.20;82.80;;;;;;5072563;28;20160;-69
2021/12/08 01:28:57;;;;;;;4.05;1.13;;;13.20;82.70;;;;;;5072658;28;20028;-71
2021/12/08 01:31:24;;;;;;;3.22;0.88;;;13.20;82.50;;;;;;5072799;28;20020;-71
2021/12/08 01:33:50;;;;;;;3.50;1.00;;;13.30;82.40;;;;;;5076855;28;20047;-65
2021/12/08 01:36:16;;;;;;;2.75;0.55;;;13.30;82.20;;;;;;5087900;28;20492;-65
2021/12/08 01:38:42;;;;;;;2.63;0.88;;;13.30;82.30;;;;;;5091816;28;20358;-69
2021/12/08 01:41:08;;;;;;;3.47;0.77;;;13.30;82.10;;;;;;5095127;28;20404;-67
2021/12/08 01:45:57;;;;;;;6.00;1.30;;;13.30;82.20;;;;;;5096864;28;20491;-73
2021/12/08 01:46:30;;;;;;;5.30;1.30;;;13.30;82.00;;;;;;5096043;28;20124;-66
2021/12/08 01:48:56;;;;;;;6.60;1.15;;;13.30;81.70;;;;;;5096342;28;20051;-72
2021/12/08 01:51:22;;;;;;;2.70;1.13;;;13.30;81.80;;;;;;5096324;28;20469;-73
2021/12/08 01:53:51;;;;;;;5.82;1.00;;;13.30;81.30;;;;;;5096627;28;20111;-73
2021/12/08 01:56:19;;;;;;;4.70;1.00;;;13.30;81.30;;;;;;5096353;28;20385;-73
2021/12/08 01:58:45;;;;;;;4.63;1.45;;;13.20;81.60;;;;;;5096156;28;20427;-65
2021/12/08 02:01:13;;;;;;;7.38;1.23;;;13.30;81.60;;;;;;5096332;28;20477;-74
2021/12/08 02:03:40;;;;;;;6.50;1.38;;;13.30;81.40;;;;;;5096454;28;20012;-73
2021/12/08 02:06:07;;;;;;;4.45;1.65;;;13.20;81.30;;;;;;5094757;28;20020;-66
2021/12/08 02:08:34;;;;;;;8.30;1.60;;;13.30;81.40;;;;;;5096311;28;20024;-73
2021/12/08 02:11:02;;;;;;;3.38;1.52;;;13.20;80.80;;;;;;5096213;28;20055;-73
2021/12/08 02:13:31;;;;;;;4.28;1.30;;;13.20;81.10;;;;;;5095774;28;20119;-73
2021/12/08 02:15:56;;;;;;;6.45;1.40;;;13.20;81.10;;;;;;5096345;28;20077;-73
2021/12/08 02:18:22;;;;;;;3.25;1.10;;;13.20;81.30;;;;;;5096237;28;20020;-73
2021/12/08 02:20:50;;;;;;;4.78;1.65;;;13.20;81.10;;;;;;5095830;28;20477;-73
2021/12/08 02:23:18;;;;;;;5.38;1.23;;;13.20;80.80;;;;;;5095833;28;20354;-73
2021/12/08 02:25:45;;;;;;;3.90;1.20;;;13.20;81.10;;;;;;5095753;28;20026;-72
2021/12/08 02:28:12;;;;;;;8.60;1.45;;;13.20;80.50;;;;;;5095716;28;20078;-66
2021/12/08 02:31:04;;;;;;;4.78;1.33;;;13.10;80.60;;;;;;5096196;28;20093;-67
2021/12/08 02:47:52;;;;;;;5.82;1.30;;;13.10;79.50;;;;;;5095591;28;20408;-71
2021/12/08 02:50:03;;;;;;;6.50;1.20;;;13.10;79.70;;;;;;5094713;28;20089;-73
2021/12/08 02:52:28;;;;;;;6.90;2.17;;;13.10;79.80;;;;;;5095428;28;20031;-63
2021/12/08 02:54:54;;;;;;;4.50;0.90;;;13.00;79.20;;;;;;5095385;28;20028;-67
2021/12/08 02:57:26;;;;;;;7.05;1.25;;;13.00;79.80;;;;;;5095699;28;20076;-72
2021/12/08 02:59:52;;;;;;;5.45;1.27;;;13.00;79.40;;;;;;5095193;28;20099;-69
2021/12/08 03:02:17;;;;;;;4.10;1.08;;;13.00;79.80;;;;;;5095496;28;20448;-66
2021/12/08 03:04:45;;;;;;;3.38;0.93;;;13.00;80.10;;;;;;5095041;28;20106;-65
2021/12/08 03:07:11;;;;;;;5.60;1.17;;;13.00;79.80;;;;;;5095105;28;20093;-72
2021/12/08 03:09:37;;;;;;;2.58;0.88;;;12.90;79.20;;;;;;5094984;28;20481;-71
2021/12/08 03:12:04;;;;;;;5.55;1.17;;;12.90;79.40;;;;;;5094870;28;20047;-70
2021/12/08 03:14:30;;;;;;;4.57;1.50;;;12.90;78.80;;;;;;5095229;28;20093;-71
2021/12/08 03:17:00;;;;;;;4.78;1.40;;;12.90;79.20;;;;;;5095045;28;20024;-71
2021/12/08 03:19:27;;;;;;;5.45;1.08;;;12.90;79.90;;;;;;5094527;28;20020;-70
2021/12/08 03:21:54;;;;;;;5.60;1.23;;;12.90;79.60;;;;;;5094840;28;20032;-68
2021/12/08 03:24:30;;;;;;;3.22;0.93;;;13.00;79.90;;;;;;5094671;28;20020;-67
2021/12/08 03:29:35;;;;;;;4.15;0.93;;;13.00;79.50;;;;;;5094795;28;20121;-65
2021/12/08 03:32:07;;;;;;;3.88;0.90;;;12.90;79.10;;;;;;5094319;28;20016;-68
2021/12/08 03:34:36;;;;;;;5.35;0.82;;;12.90;79.60;;;;;;5094385;28;20030;-68
2021/12/08 03:37:03;;;;;;;4.28;1.38;;;12.90;79.50;;;;;;5094498;28;20024;-69
2021/12/08 03:39:29;;;;;;;5.68;1.42;;;12.90;78.90;;;;;;5094581;28;20016;-67
2021/12/08 03:41:55;;;;;;;3.53;0.93;;;12.90;78.90;;;;;;5094504;28;20453;-68
2021/12/08 03:44:20;;;;;;;3.80;0.70;;;12.90;78.90;;;;;;5094252;28;20071;-69
2021/12/08 03:46:46;;;;;;;7.25;1.02;;;12.90;79.20;;;;;;5093988;28;20059;-66
2021/12/08 03:49:15;;;;;;;5.97;0.90;;;12.90;79.00;;;;;;5094173;28;20403;-69
2021/12/08 03:51:41;;;;;;;5.20;1.13;;;12.90;79.00;;;;;;5094611;28;20120;-71
2021/12/08 03:54:08;;;;;;;6.10;0.98;;;12.90;78.60;;;;;;5094330;28;20437;-70
2021/12/08 03:56:34;;;;;;;3.00;0.88;;;12.80;78.20;;;;;;5094341;28;20485;-71
2021/12/08 03:59:00;;;;;;;4.40;1.05;;;12.90;78.90;;;;;;5093716;28;20024;-72
2021/12/08 04:01:26;;;;;;;5.18;0.80;;;12.80;78.80;;;;;;5093890;28;20020;-68
2021/12/08 04:03:51;;;;;;;8.43;1.40;;;12.90;78.80;;;;;;5093294;28;20032;-64
2021/12/08 04:06:29;;;;;;;4.65;0.60;;;12.80;77.70;;;;;;5094139;28;20024;-72
2021/12/08 04:08:57;;;;;;;5.68;1.17;;;12.80;78.20;;;;;;5093572;28;20043;-72
2021/12/08 04:11:24;;;;;;;4.60;0.98;;;12.80;78.70;;;;;;5093966;28;20016;-72
2021/12/08 04:13:55;;;;;;;7.18;0.98;;;12.90;78.90;;;;;;5093617;28;20113;-72
2021/12/08 04:16:25;;;;;;;5.03;0.75;;;12.80;77.90;;;;;;5093531;28;20388;-72
2021/12/08 04:18:53;;;;;;;4.93;1.35;;;12.80;78.10;;;;;;5093702;28;20369;-72
2021/12/08 04:21:20;;;;;;;6.40;1.50;;;12.70;77.20;;;;;;5093751;28;20469;-73
2021/12/08 04:23:47;;;;;;;5.88;0.90;;;12.70;77.60;;;;;;5093655;28;20480;-72
2021/12/08 04:26:22;;;;;;;2.80;0.73;;;12.70;78.30;;;;;;5093496;28;20073;-73
2021/12/08 04:28:47;;;;;;;4.88;1.23;;;12.70;78.00;;;;;;5093466;28;20036;-73
2021/12/08 04:31:21;;;;;;;4.85;1.25;;;12.60;78.10;;;;;;5093258;28;20077;-73
2021/12/08 04:33:52;;;;;;;3.65;1.35;;;12.70;78.70;;;;;;5093797;28;20020;-73
2021/12/08 04:36:18;;;;;;;22.73;2.65;;;12.70;78.30;;;;;;5093575;28;20479;-72
2021/12/08 04:38:48;;;;;;;6.18;1.23;;;12.60;78.00;;;;;;5093515;28;20540;-69
2021/12/08 04:41:23;;;;;;;6.47;1.27;;;12.50;77.30;;;;;;5093248;28;20033;-68
2021/12/08 04:44:00;;;;;;;4.00;1.30;;;12.60;77.00;;;;;;5093578;28;20028;-72
2021/12/08 04:49:36;;;;;;;6.03;1.20;;;12.50;76.70;;;;;;5093366;28;20044;-72
2021/12/08 04:51:52;;;;;;;5.05;1.50;;;12.50;77.00;;;;;;5092827;28;20055;-70
2021/12/08 05:08:20;;;;;;;4.15;1.00;;;12.20;77.60;;;;;;5093329;28;20075;-70
2021/12/08 05:10:48;;;;;;;6.30;1.35;;;12.30;78.20;;;;;;5091530;28;20021;-69
2021/12/08 05:13:16;;;;;;;6.32;1.52;;;12.30;77.90;;;;;;5091449;28;20481;-69
2021/12/08 05:15:53;;;;;;;5.35;1.10;;;12.30;77.60;;;;;;5095897;28;20024;-71
2021/12/08 05:18:29;;;;;;;7.88;1.50;;;12.20;77.50;;;;;;5097338;28;20012;-71
2021/12/08 05:21:16;;;;;;;6.07;1.20;;;12.20;77.60;;;;;;5095649;28;20110;-69
2021/12/08 05:23:48;;;;;;;5.50;1.42;;;12.20;77.60;;;;;;5097271;28;20012;-72
2021/12/08 05:26:24;;;;;;;6.25;1.80;;;12.10;78.00;;;;;;5095909;28;20429;-65
2021/12/08 05:28:52;;;;;;;3.83;1.02;;;12.10;77.90;;;;;;5079734;28;20777;-69
2021/12/08 05:31:23;;;;;;;7.90;1.20;;;12.10;77.80;;;;;;5086403;28;20024;-65
2021/12/08 05:33:49;;;;;;;8.40;2.03;;;12.10;77.60;;;;;;5076891;28;20040;-71
2021/12/08 05:36:15;;;;;;;4.80;1.25;;;12.10;78.10;;;;;;5090402;28;20024;-70
2021/12/08 05:38:43;;;;;;;5.25;1.20;;;12.10;78.10;;;;;;5097008;28;20028;-69
2021/12/08 05:41:13;;;;;;;6.90;1.33;;;12.10;78.00;;;;;;5096709;28;20032;-67
2021/12/08 05:43:40;;;;;;;4.68;1.20;;;12.10;77.60;;;;;;5096444;28;20024;-70
2021/12/08 05:46:06;;;;;;;4.35;1.50;;;12.10;77.60;;;;;;5081400;28;20107;-71
2021/12/08 05:48:33;;;;;;;4.68;1.27;;;12.00;77.90;;;;;;5091163;28;20028;-70
2021/12/08 05:51:03;;;;;;;7.90;1.83;;;12.00;78.20;;;;;;5096491;28;20369;-69
2021/12/08 05:53:30;;;;;;;7.40;1.70;;;12.00;78.10;;;;;;5096572;28;20043;-69
2021/12/08 05:55:56;;;;;;;6.80;1.20;;;12.00;77.80;;;;;;5096598;28;20012;-64
2021/12/08 05:58:24;;;;;;;7.97;1.98;;;12.00;77.80;;;;;;5095894;28;20032;-66
2021/12/08 06:00:55;;;;;;;8.07;1.30;;;12.00;78.10;;;;;;5089187;28;20031;-65
2021/12/08 06:03:20;;;;;;;8.60;1.33;;;12.00;77.70;;;;;;5082221;28;20078;-67
2021/12/08 06:05:49;;;;;;;5.10;1.55;;;11.90;78.10;;;;;;5074595;28;20103;-64
2021/12/08 06:08:15;;;;;;;3.90;1.67;;;11.90;78.40;;;;;;5074860;28;20064;-66
2021/12/08 06:10:43;;;;;;;7.32;1.50;;;11.90;78.30;;;;;;5075440;28;20351;-66
2021/12/08 06:13:12;;;;;;;4.18;0.95;;;11.90;77.90;;;;;;5075265;28;20106;-64
2021/12/08 06:15:39;;;;;;;6.22;1.27;;;11.90;78.20;;;;;;5085645;28;20043;-65
2021/12/08 06:18:06;;;;;;;4.60;1.30;;;11.80;77.80;;;;;;5092069;28;20074;-63
2021/12/08 06:20:33;;;;;;;6.93;1.40;;;11.80;77.70;;;;;;5098891;28;20537;-68
2021/12/08 06:22:59;;;;;;;19.02;3.17;;;11.80;77.80;;;;;;5094424;28;20469;-72
2021/12/08 06:25:26;;;;;;;6.50;1.77;;;11.80;78.20;;;;;;5090647;28;20032;-74
2021/12/08 06:27:52;;;;;;;4.63;1.00;;;11.90;79.10;;;;;;5079255;28;20028;-68
2021/12/08 06:30:21;;;;;;;7.03;1.38;;;11.90;79.30;;;;;;5082460;28;20030;-71
2021/12/08 06:32:46;;;;;;;5.10;1.25;;;12.00;79.40;;;;;;5082762;28;20077;-71
2021/12/08 06:35:17;;;;;;;6.40;1.40;;;11.90;78.20;;;;;;5079609;28;20370;-60
2021/12/08 06:37:44;;;;;;;6.28;1.27;;;11.90;77.70;;;;;;5086292;28;20064;-60
2021/12/08 06:40:24;;;;;;;6.47;1.23;;;11.80;78.40;;;;;;5079113;28;20013;-69
2021/12/08 06:42:56;;;;;;;6.05;1.10;;;11.90;79.70;;;;;;5084461;28;20123;-67
2021/12/08 06:45:26;;;;;;;7.05;1.65;;;12.00;80.80;;;;;;5090503;28;20059;-62
2021/12/08 06:47:55;;;;;;;13.52;1.55;;;12.00;79.40;;;;;;5087882;28;20036;-70
2021/12/08 06:50:31;;;;;;;5.93;1.30;;;11.90;77.40;;;;;;5081203;28;20055;-70
2021/12/08 06:52:57;;;;;;;4.25;0.95;;;11.90;77.50;;;;;;5092170;28;20020;-70
2021/12/08 06:55:28;;;;;;;4.82;1.10;;;12.00;79.40;;;;;;5085452;28;20051;-64
2021/12/08 06:57:57;;;;;;;6.35;1.30;;;12.00;79.80;;;;;;5089101;28;20104;-66
2021/12/08 07:00:48;;;;;;;9.30;1.52;;;12.10;79.80;;;;;;5083673;28;20020;-62
2021/12/08 07:03:46;;;;;;;5.28;1.40;;;12.20;80.00;;;;;;5073656;28;20042;-71
2021/12/08 07:06:29;;;;;;;7.25;1.70;;;12.10;79.10;;;;;;5073816;28;20072;-71
2021/12/08 07:08:58;;;;;;;7.30;1.20;;;12.20;79.30;;;;;;5077180;28;20033;-70
2021/12/08 07:11:26;;;;;;;7.68;1.55;;;12.20;78.70;;;;;;5083389;28;20029;-72
2021/12/08 07:13:55;;;;;;;6.97;1.55;;;12.20;79.20;;;;;;5096661;28;20040;-66
2021/12/08 07:16:28;;;;;;;5.95;1.50;;;12.10;78.40;;;;;;5096988;28;20024;-66
2021/12/08 07:19:03;;;;;;;6.85;1.30;;;12.00;76.60;;;;;;5114022;28;20091;-66
2021/12/08 07:21:35;;;;;;;4.53;1.55;;;12.00;78.70;;;;;;5115098;28;20028;-68
2021/12/08 07:24:11;;;;;;;3.88;1.10;;;11.90;76.50;;;;;;5113405;28;20019;-67
2021/12/08 07:26:39;;;;;;;5.05;1.48;;;11.80;76.50;;;;;;5114735;28;20027;-67
2021/12/08 07:29:10;;;;;;;10.63;2.22;;;11.70;76.80;;;;;;5092459;28;20153;-70
2021/12/08 07:31:40;;;;;;;7.65;2.22;;;11.60;77.10;;;;;;5093339;28;20474;-68
2021/12/08 07:34:15;;;;;;;6.03;1.58;;;11.50;77.60;;;;;;5085871;28;20021;-64
2021/12/08 07:36:44;;;;;;;7.00;1.90;;;11.50;77.60;;;;;;5093830;28;20031;-67
2021/12/08 07:39:16;;;;;;;5.55;1.70;;;11.40;77.80;;;;;;5094106;28;20016;-67
2021/12/08 07:41:47;;;;;;;5.93;1.60;;;11.40;78.20;;;;;;5094596;28;20038;-68
2021/12/08 07:44:15;;;;;;;8.33;1.63;;;11.30;78.20;;;;;;5094907;28;20025;-64
2021/12/08 07:46:46;;;;;;;6.25;1.60;;;11.40;78.70;;;;;;5094261;28;20763;-67
2021/12/08 07:49:20;;;;;;;7.45;1.77;;;11.40;78.40;;;;;;5094019;28;20081;-68
2021/12/08 07:52:05;;;;;;;9.75;1.83;;;11.40;79.10;;;;;;5094327;28;20017;-65
2021/12/08 07:54:32;;;;;;;6.30;1.85;;;11.40;78.50;;;;;;5093502;28;20110;-66
2021/12/08 07:57:00;;;;;;;11.00;2.03;;;11.30;78.50;;;;;;5094014;28;20048;-69
2021/12/08 07:59:28;;;;;;;7.63;1.90;;;11.30;78.80;;;;;;5093086;28;20024;-68
2021/12/08 08:01:57;;;;;;;5.75;1.63;;;11.30;78.90;;;;;;5094038;28;20122;-71
2021/12/08 08:04:27;;;;;;;5.93;1.70;;;11.30;78.80;;;;;;5103935;28;20112;-65
2021/12/08 08:06:57;;;;;;;8.80;1.70;;;11.30;78.80;;;;;;5093950;28;20039;-69
2021/12/08 08:09:28;;;;;;;4.72;1.27;;;11.30;78.50;;;;;;5088881;28;20016;-68
2021/12/08 08:11:58;;;;;;;6.13;1.30;;;11.30;79.70;;;;;;5093717;28;20495;-67
2021/12/08 08:14:37;;;;;;;6.10;1.58;;;11.20;79.10;;;;;;5093409;28;20035;-67
2021/12/08 08:17:04;;;;;;;6.15;1.42;;;11.30;78.90;;;;;;5093743;28;20020;-75
2021/12/08 08:19:31;;;;;;;4.53;1.58;;;11.30;78.90;;;;;;5093593;28;20024;-74
2021/12/08 08:22:03;;;;;;;7.28;1.70;;;11.30;79.00;;;;;;5093117;28;20024;-68
2021/12/08 08:24:29;;;;;;;7.85;2.15;;;11.30;78.90;;;;;;5093485;28;20339;-71
2021/12/08 08:26:58;;;;;;;3.80;1.38;;;11.30;79.30;;;;;;5085636;28;20032;-70
2021/12/08 08:29:24;;;;;;;5.05;1.08;;;11.30;79.60;;;;;;5089135;28;20410;-62
2021/12/08 08:31:59;;;;;;;4.18;1.33;;;11.40;80.40;;;;;;5090226;28;20023;-67
2021/12/08 08:34:27;;;;;;;5.78;1.85;;;11.50;81.20;;;;;;5093199;28;20460;-67
2021/12/08 08:36:53;;;;;;;8.43;1.10;;;11.60;81.70;;;;;;5093249;28;20024;-70
2021/12/08 08:39:30;;;;;;;6.93;1.33;;;11.70;82.40;;;;;;5093630;28;20031;-71
2021/12/08 08:42:05;;;;;;;5.55;1.10;;;11.80;82.20;;;;;;5093093;28;20085;-68
2021/12/08 08:44:51;;;;;;;6.47;1.52;;;11.90;82.50;;;;;;5093265;28;20393;-69
2021/12/08 08:47:29;;;;;;;6.70;1.35;;;11.90;80.90;;;;;;5082237;28;20091;-69
2021/12/08 08:49:56;;;;;;;4.03;0.98;;;11.90;80.80;;;;;;5077634;28;20485;-69
2021/12/08 08:52:35;;;;;;;6.72;1.85;;;12.00;81.50;;;;;;5082808;28;20031;-65
2021/12/08 08:55:06;;;;;;;6.05;1.08;;;12.00;82.00;;;;;;5092976;28;20101;-61
2021/12/08 08:57:36;;;;;;;5.05;1.38;;;12.00;81.30;;;;;;5092977;28;20031;-59
2021/12/08 09:00:30;;;;;;;6.32;1.48;;;12.00;81.50;;;;;;5092642;28;20024;-60
2021/12/08 09:02:59;;;;;;;4.72;1.75;;;12.10;81.90;;;;;;5093131;28;20144;-67
2021/12/08 09:05:32;;;;;;;5.05;2.05;;;12.10;80.80;;;;;;5090851;28;20035;-67
2021/12/08 09:07:59;;;;;;;5.55;2.22;;;12.10;78.00;;;;;;5082746;28;20409;-65
2021/12/08 09:10:34;;;;;;;5.75;2.40;;;12.00;77.50;;;;;;5076378;28;20027;-68
2021/12/08 09:13:06;;;;;;;7.65;3.15;;;11.90;77.60;;;;;;5084160;28;20044;-67
2021/12/08 09:15:42;;;;;;;8.23;2.67;;;11.80;78.20;;;;;;5092873;28;20028;-67
2021/12/08 09:18:17;;;;;;;7.30;2.05;;;11.80;77.80;;;;;;5081996;28;20473;-67
2021/12/08 09:20:55;;;;;;;4.72;1.88;;;11.80;78.10;;;;;;5072233;28;20021;-68
2021/12/08 09:23:50;;;;;;;5.50;1.75;;;11.70;78.00;;;;;;5085692;28;20024;-68
2021/12/08 09:26:20;;;;;;;8.35;1.55;;;11.70;78.20;;;;;;5072574;28;20032;-68
2021/12/08 09:29:03;;;;;;;8.10;2.63;;;11.80;78.20;;;;;;5085906;28;20071;-73
2021/12/08 09:31:35;;;;;;;6.22;2.30;;;11.80;78.30;;;;;;5083212;28;20074;-67
2021/12/08 09:34:21;;;;;;;4.28;1.13;;;11.70;78.70;;;;;;5092730;28;20112;-65
2021/12/08 09:36:57;;;;;;;8.25;2.05;;;11.90;82.50;;;;;;5072506;28;20021;-68
2021/12/08 09:39:54;;;;;;;4.53;1.30;;;12.00;81.20;;;;;;5071983;28;20021;-67
2021/12/08 09:42:41;;;;;;;5.22;1.63;;;12.00;80.10;;;;;;5087720;28;20032;-67
2021/12/08 09:45:13;;;;;;;4.88;1.48;;;12.10;80.90;;;;;;5088019;28;20032;-68
2021/12/08 09:47:38;;;;;;;4.57;1.67;;;12.10;78.70;;;;;;5082869;28;20056;-59
2021/12/08 09:50:09;;;;;;;6.47;1.23;;;12.00;77.80;;;;;;5072514;28;20028;-60
2021/12/08 09:52:35;;;;;;;5.45;1.77;;;12.00;77.60;;;;;;5073658;28;20021;-67
2021/12/08 09:55:03;;;;;;;5.93;2.13;;;12.00;77.60;;;;;;5082732;28;20013;-64
2021/12/08 09:57:29;;;;;;;7.30;2.63;;;11.90;77.50;;;;;;5079046;28;20035;-60
2021/12/08 09:59:55;;;;;;;10.05;3.38;;;11.90;77.70;;;;;;5088848;28;20028;-59
2021/12/08 10:02:32;;;;;;;14.00;4.43;;;11.80;77.70;;;;;;5090313;28;20116;-63
2021/12/08 10:05:01;;;;;;;6.35;2.67;;;11.80;77.70;;;;;;5090218;28;20420;-60
2021/12/08 10:07:27;;;;;;;5.97;2.33;;;11.80;78.20;;;;;;5092497;28;20560;-65
2021/12/08 10:09:53;;;;;;;8.57;3.05;;;11.80;78.20;;;;;;5087794;28;20024;-67
2021/12/08 10:12:19;;;;;;;6.28;2.78;;;11.80;77.90;;;;;;5080542;28;20097;-64
2021/12/08 10:14:46;;;;;;;7.30;3.50;;;11.80;77.90;;;;;;5100717;28;20098;-64
2021/12/08 10:17:16;;;;;;;6.82;2.33;;;11.80;77.90;;;;;;5113383;28;20019;-61
2021/12/08 10:19:42;;;;;;;6.13;1.40;;;11.80;78.40;;;;;;5093301;28;20008;-65
2021/12/08 10:22:19;;;;;;;5.55;1.67;;;11.80;78.70;;;;;;5092034;28;20060;-66
2021/12/08 10:25:11;;;;;;;4.72;1.52;;;12.10;82.00;;;;;;5105195;28;20024;-69
2021/12/08 10:27:56;;;;;;;;;;;12.20;81.90;;;;;;5089607;28;20036;-72
2021/12/08 10:30:23;;;;;;;6.85;1.60;;;12.20;80.50;;;;;;5090555;28;19935;-67
2021/12/08 10:32:50;;;;;;;7.00;1.33;;;12.30;80.20;;;;;;5086193;28;20101;-69
2021/12/08 10:35:50;;;;;;;6.65;1.48;;;12.30;77.80;;;;;;5094924;28;20016;-67
2021/12/08 10:38:16;;;;;;;4.22;1.20;;;12.30;77.20;;;;;;5075650;28;20028;-67
2021/12/08 10:41:01;;;;;;;5.40;1.40;;;12.20;77.30;;;;;;5080280;28;20116;-71
2021/12/08 10:43:27;;;;;;;4.88;1.33;;;12.10;77.30;;;;;;5088879;28;20024;-68
2021/12/08 10:46:05;;;;;;;6.43;1.67;;;12.10;77.10;;;;;;5090545;28;20028;-65
2021/12/08 10:48:38;;;;;;;6.47;1.52;;;12.10;77.30;;;;;;5091870;28;20032;-62
2021/12/08 10:56:47;;;;;;;6.03;1.52;;;12.10;77.10;;;;;;5087108;28;20035;-65
2021/12/08 10:59:13;;;;;;;3.63;1.02;;;12.10;77.00;;;;;;5085862;28;20056;-63
2021/12/08 11:01:38;;;;;;;5.10;1.23;;;12.10;77.10;;;;;;5091040;28;20048;-61
2021/12/08 11:04:07;;;;;;;8.68;1.30;;;12.10;77.30;;;;;;5082121;28;20024;-61
2021/12/08 11:06:35;;;;;;;10.48;1.40;;;12.10;77.20;;;;;;5086698;28;20028;-67
2021/12/08 11:09:04;;;;;;;5.47;1.20;;;12.00;77.30;;;;;;5088536;28;20036;-66
2021/12/08 11:11:33;;;;;;;7.07;2.03;;;12.10;77.50;;;;;;5085916;28;20388;-67
2021/12/08 11:14:01;;;;;;;3.85;1.23;;;12.10;77.80;;;;;;5086316;28;20385;-65
2021/12/08 11:16:34;;;;;;;4.63;1.38;;;12.10;77.50;;;;;;5096471;28;20043;-64
2021/12/08 11:19:08;;;;;;;5.30;1.27;;;12.10;77.60;;;;;;5087568;28;20110;-67
2021/12/08 11:21:40;;;;;;;6.43;1.73;;;12.10;77.30;;;;;;5078859;28;20093;-69
2021/12/08 11:24:35;;;;;;;5.50;1.25;;;12.10;77.70;;;;;;5077964;28;20025;-67
2021/12/08 11:27:03;;;;;;;8.75;1.98;;;12.10;77.30;;;;;;5075168;28;20029;-65
2021/12/08 11:29:33;;;;;;;5.30;1.55;;;12.10;78.00;;;;;;5072648;28;20044;-67
2021/12/08 11:32:03;;;;;;;4.65;1.23;;;12.10;77.30;;;;;;5076210;28;20028;-63
2021/12/08 11:34:30;;;;;;;5.38;1.88;;;12.10;77.30;;;;;;5084223;28;20032;-67
2021/12/08 11:36:58;;;;;;;3.38;1.20;;;12.10;77.60;;;;;;5076233;28;20020;-64
2021/12/08 11:39:29;;;;;;;6.65;1.70;;;12.10;77.70;;;;;;5082848;28;20500;-68
2021/12/08 11:41:59;;;;;;;6.63;1.55;;;12.10;78.30;;;;;;5076038;28;20084;-67
2021/12/08 11:44:28;;;;;;;7.43;1.85;;;12.20;77.50;;;;;;5073630;28;20059;-68
2021/12/08 11:47:00;;;;;;;7.35;1.90;;;12.20;78.50;;;;;;5082750;28;20028;-63
2021/12/08 11:49:26;;;;;;;8.77;2.17;;;12.20;77.70;;;;;;5083074;28;20413;-63
2021/12/08 11:51:58;;;;;;;7.00;1.90;;;12.20;77.60;;;;;;5077191;28;20482;-59
2021/12/08 11:54:27;;;;;;;7.22;3.08;;;12.20;77.60;;;;;;5078534;28;20035;-60
2021/12/08 11:57:00;;;;;;;5.38;1.70;;;12.20;78.30;;;;;;5087672;28;20028;-59
2021/12/08 11:59:26;;;;;;;7.03;1.98;;;12.20;78.30;;;;;;5072245;28;20028;-59
2021/12/08 12:01:53;;;;;;;9.10;1.75;;;12.30;77.90;;;;;;5079595;28;20384;-60
2021/12/08 12:04:18;;;;;;;4.25;1.70;;;12.20;77.70;;;;;;5088856;28;20028;-59
2021/12/08 12:06:44;;;;;;;4.55;1.50;;;12.30;77.70;;;;;;5081299;28;20111;-59
2021/12/08 12:09:10;;;;;;;3.50;1.25;;;12.30;79.70;;;;;;5086777;28;20331;-61
2021/12/08 12:11:36;;;;;;;4.22;1.50;;;12.40;81.60;;;;;;5083782;28;20030;-68
2021/12/08 12:14:03;;;;;;;4.38;1.88;;;12.50;78.30;;;;;;5084871;28;20098;-67
2021/12/08 12:16:29;;;;;;;4.57;1.38;;;12.50;77.70;;;;;;5080015;28;20024;-68
2021/12/08 12:18:59;;;;;;;6.60;1.60;;;12.50;78.00;;;;;;5070663;28;20027;-67
2021/12/08 12:22:03;;;;;;;5.68;1.40;;;12.50;77.70;;;;;;5074622;28;20130;-65
2021/12/08 12:24:53;;;;;;;6.97;1.27;;;12.50;79.30;;;;;;5079008;28;20166;-67
2021/12/08 12:27:52;;;;;;;4.05;1.42;;;12.60;78.70;;;;;;5077433;28;20032;-65
2021/12/08 12:30:26;;;;;;;7.65;1.50;;;12.60;77.10;;;;;;5084940;28;20035;-65
2021/12/08 12:32:54;;;;;;;5.82;1.00;;;12.60;76.30;;;;;;5085618;28;20128;-65
2021/12/08 12:35:20;;;;;;;3.75;1.23;;;12.50;76.50;;;;;;5089849;28;20023;-63
2021/12/08 12:37:47;;;;;;;5.25;1.70;;;12.70;80.90;;;;;;5086178;28;20034;-67
2021/12/08 12:40:16;;;;;;;5.40;1.23;;;12.80;76.30;;;;;;5086517;28;20508;-64
2021/12/08 12:42:55;;;;;;;6.10;1.40;;;12.80;76.50;;;;;;5091129;28;20030;-73
2021/12/08 12:45:24;;;;;;;4.63;1.25;;;12.80;75.60;;;;;;5088560;28;20512;-75
2021/12/08 12:48:11;;;;;;;7.00;1.75;;;12.70;75.30;;;;;;5087855;28;20062;-72
2021/12/08 12:51:09;;;;;;;3.58;1.17;;;12.70;75.50;;;;;;5085118;28;20496;-69
2021/12/08 12:53:38;;;;;;;5.60;1.77;;;12.70;75.40;;;;;;5085531;28;20051;-68
2021/12/08 12:56:06;;;;;;;5.30;1.45;;;12.70;75.40;;;;;;5083919;28;20592;-68
2021/12/08 12:58:49;;;;;;;2.80;1.58;;;12.60;75.10;;;;;;5080832;28;20533;-70
2021/12/08 13:01:24;;;;;;;3.30;1.50;;;12.60;74.90;;;;;;5080509;28;20039;-68
2021/12/08 13:03:55;;;;;;;5.32;1.35;;;12.60;77.10;;;;;;5072038;28;20024;-69
2021/12/08 13:06:45;;;;;;;4.80;1.70;;;12.70;78.00;;;;;;5084479;28;20028;-70
2021/12/08 13:09:36;;;;;;;4.55;1.23;;;12.80;79.30;;;;;;5080918;28;20243;-70
2021/12/08 13:12:14;;;;;;;5.10;1.40;;;12.80;75.50;;;;;;5078153;28;20401;-68
2021/12/08 13:14:40;;;;;;;6.00;1.70;;;12.80;75.30;;;;;;5085843;28;20055;-69
2021/12/08 13:17:15;;;;;;;5.60;1.60;;;12.80;75.20;;;;;;5079100;28;20031;-70
2021/12/08 13:19:47;;;;;;;7.82;1.50;;;12.70;75.50;;;;;;5108913;28;20031;-69
2021/12/08 13:22:53;;;;;;;6.40;1.40;;;12.70;75.80;;;;;;5101552;28;20101;-74
2021/12/08 13:25:26;;;;;;;5.45;1.33;;;12.70;75.80;;;;;;5080186;28;20024;-71
2021/12/08 13:28:07;;;;;;;3.92;1.42;;;12.80;78.10;;;;;;5077148;28;20036;-72
2021/12/08 13:30:33;;;;;;;6.05;1.40;;;12.80;79.20;;;;;;5084056;28;20031;-72
2021/12/08 13:33:08;;;;;;;6.28;1.48;;;12.80;77.70;;;;;;5083463;28;20024;-61
2021/12/08 13:35:35;;;;;;;2.55;1.20;;;13.00;79.30;;;;;;5085852;28;20383;-68
2021/12/08 13:38:02;;;;;;;3.97;1.63;;;13.00;79.00;;;;;;5083779;28;20024;-68
2021/12/08 13:40:49;;;;;;;5.55;1.38;;;13.10;78.50;;;;;;5081885;28;20116;-63
2021/12/08 13:43:36;;;;;;;4.72;1.08;;;13.10;78.60;;;;;;5092117;28;20419;-61
2021/12/08 13:46:03;;;;;;;3.88;0.88;;;13.10;79.20;;;;;;5092344;28;20024;-62
2021/12/08 13:48:29;;;;;;;3.75;1.00;;;13.20;80.60;;;;;;5081622;28;20044;-62